Time;durP1;ratioP1;P1;durP2;ratioP2;P2;SDS_P1;SDS_P2;PMS_P1;PMS_P2;Temp;Humidity;BMP_temperature;BMP_pressure;BME280_temperature;BME280_humidity;BME280_pressure;Samples;Min_cycle;Max_cycle;Signal;HPM_P1;HPM_P2
2024/01/01 00:00:24;;;;;;;33.20;23.80;;;;;;;1.54;100.00;100332.12;87324;271;137293;-71
2024/01/01 00:02:26;;;;;;;32.60;22.70;;;;;;;1.62;100.00;100324.47;87369;279;24002;-72
2024/01/01 00:04:29;;;;;;;34.90;25.00;;;;;;;1.66;100.00;100326.06;87084;278;136957;-72
2024/01/01 00:06:31;;;;;;;34.00;24.50;;;;;;;1.68;100.00;100325.94;87486;271;25125;-72
2024/01/01 00:08:33;;;;;;;34.00;25.60;;;;;;;1.66;100.00;100322.22;87142;271;137233;-70
2024/01/01 00:10:35;;;;;;;35.10;23.80;;;;;;;1.66;100.00;100320.34;87375;275;25123;-73
2024/01/01 00:12:36;;;;;;;34.70;24.40;;;;;;;1.66;100.00;100322.58;87267;271;136926;-71
2024/01/01 00:14:38;;;;;;;34.40;24.50;;;;;;;1.64;100.00;100319.92;87324;279;22642;-73
2024/01/01 00:16:41;;;;;;;36.10;24.30;;;;;;;1.60;100.00;100315.16;87209;271;136978;-71
2024/01/01 00:18:43;;;;;;;34.90;24.50;;;;;;;1.57;100.00;100306.14;87367;267;25118;-71
2024/01/01 00:20:45;;;;;;;37.20;26.20;;;;;;;1.53;100.00;100303.19;87229;271;136535;-73
2024/01/01 00:22:49;;;;;;;43.50;28.80;;;;;;;1.50;100.00;100303.98;87298;271;22569;-73
2024/01/01 00:24:51;;;;;;;45.90;31.00;;;;;;;1.46;100.00;100300.48;87388;267;136751;-72
2024/01/01 00:26:54;;;;;;;52.70;35.70;;;;;;;1.49;100.00;100302.16;87303;279;22566;-70
2024/01/01 00:28:56;;;;;;;54.70;37.60;;;;;;;1.54;100.00;100294.89;87248;267;137114;-74
2024/01/01 00:30:58;;;;;;;52.20;36.00;;;;;;;1.57;100.00;100294.61;87425;279;22559;-70
2024/01/01 00:33:00;;;;;;;57.30;37.70;;;;;;;1.59;100.00;100294.09;87078;265;137216;-71
2024/01/01 00:35:02;;;;;;;53.20;35.40;;;;;;;1.56;100.00;100297.70;87220;272;25192;-73
2024/01/01 00:37:03;;;;;;;51.80;36.00;;;;;;;1.48;100.00;100300.61;87299;279;136598;-73
2024/01/01 00:39:06;;;;;;;50.70;35.60;;;;;;;1.36;100.00;100308.15;87377;274;22639;-71
2024/01/01 00:41:13;;;;;;;54.10;35.60;;;;;;;1.22;100.00;100300.74;87413;271;136351;-72
2024/01/01 00:43:15;;;;;;;49.90;35.20;;;;;;;1.07;100.00;100289.56;87306;272;22560;-68
2024/01/01 00:45:17;;;;;;;55.00;38.40;;;;;;;0.95;100.00;100292.10;87187;272;136666;-71
2024/01/01 00:47:18;;;;;;;57.40;38.60;;;;;;;0.89;100.00;100292.42;87380;263;25174;-70
2024/01/01 00:49:20;;;;;;;60.80;40.80;;;;;;;0.89;100.00;100288.56;87066;272;137080;-70
2024/01/01 00:51:23;;;;;;;52.40;37.20;;;;;;;0.92;100.00;100275.52;87318;274;22556;-71
2024/01/01 00:53:24;;;;;;;57.80;40.70;;;;;;;0.94;100.00;100279.42;87200;267;137051;-70
2024/01/01 00:55:26;;;;;;;47.70;35.80;;;;;;;0.92;100.00;100288.34;87368;267;25290;-71
2024/01/01 00:57:28;;;;;;;49.50;32.50;;;;;;;0.87;100.00;100296.95;87080;280;136469;-71
2024/01/01 00:59:30;;;;;;;54.70;36.20;;;;;;;0.78;100.00;100298.56;87157;276;22642;-71
2024/01/01 01:01:32;;;;;;;49.90;34.30;;;;;;;0.70;100.00;100302.23;87116;281;136401;-71
2024/01/01 01:03:36;;;;;;;54.50;38.20;;;;;;;0.64;100.00;100300.93;87440;271;25079;-70
2024/01/01 01:05:38;;;;;;;53.60;36.00;;;;;;;0.65;100.00;100294.61;87238;271;137345;-72
2024/01/01 01:07:40;;;;;;;57.00;39.60;;;;;;;0.67;100.00;100296.17;87192;277;25122;-69
2024/01/01 01:09:42;;;;;;;55.30;39.30;;;;;;;0.69;100.00;100297.39;87102;269;137076;-70
2024/01/01 01:11:43;;;;;;;56.10;39.30;;;;;;;0.72;100.00;100295.36;87336;271;22563;-71
2024/01/01 01:13:45;;;;;;;51.60;37.00;;;;;;;0.75;100.00;100295.11;87183;278;137301;-67
2024/01/01 01:15:49;;;;;;;53.50;36.00;;;;;;;0.80;100.00;100290.03;87425;271;25351;-75
2024/01/01 01:17:50;;;;;;;57.60;36.50;;;;;;;0.77;100.00;100294.63;87324;267;136769;-71
2024/01/01 01:19:52;;;;;;;51.50;35.50;;;;;;;0.73;100.00;100288.63;87324;271;22558;-71
2024/01/01 01:21:54;;;;;;;53.70;35.50;;;;;;;0.69;100.00;100265.02;87100;273;136350;-74
2024/01/01 01:23:57;;;;;;;48.90;34.70;;;;;;;0.67;100.00;100259.83;87338;271;22638;-76
2024/01/01 01:25:59;;;;;;;48.30;35.50;;;;;;;0.68;100.00;100259.36;87116;271;136186;-70
2024/01/01 01:28:03;;;;;;;44.80;31.20;;;;;;;0.77;100.00;100263.02;87176;279;23736;-71
2024/01/01 01:30:05;;;;;;;48.70;31.90;;;;;;;0.84;100.00;100262.25;87355;279;25188;-74
2024/01/01 01:32:09;;;;;;;41.80;27.90;;;;;;;0.88;100.00;100256.09;87173;271;137310;-73
2024/01/01 01:34:11;;;;;;;43.30;29.10;;;;;;;0.92;100.00;100249.98;87525;267;25249;-72
2024/01/01 01:36:14;;;;;;;42.40;29.50;;;;;;;0.95;100.00;100250.45;87310;266;137582;-72
2024/01/01 01:38:16;;;;;;;39.10;29.00;;;;;;;0.98;100.00;100250.73;87377;278;22639;-65
2024/01/01 01:41:37;;;;;;;38.20;25.40;;;;;;;0.89;100.00;100251.82;85031;300;603931;-71
2024/01/01 01:43:40;;;;;;;42.30;29.30;;;;;;;0.87;100.00;100254.45;86348;290;24051;-72
2024/01/01 01:45:45;;;;;;;38.40;28.10;;;;;;;0.85;100.00;100250.27;86323;289;136098;-71
2024/01/01 01:47:47;;;;;;;47.70;29.10;;;;;;;0.77;100.00;100250.53;86230;292;24126;-70
2024/01/01 01:49:50;;;;;;;41.80;30.00;;;;;;;0.75;100.00;100253.18;86843;283;136399;-71
2024/01/01 01:51:53;;;;;;;38.10;28.70;;;;;;;0.72;100.00;100254.13;86975;279;26283;-70
2024/01/01 01:53:56;;;;;;;39.00;26.40;;;;;;;0.71;100.00;100251.45;86944;279;136394;-70
2024/01/01 01:56:01;;;;;;;35.70;28.40;;;;;;;0.79;100.00;100247.73;86748;275;341884;-74
2024/01/01 01:58:03;;;;;;;40.30;28.00;;;;;;;0.81;100.00;100241.85;87079;273;22558;-74
2024/01/01 02:00:07;;;;;;;40.50;27.70;;;;;;;0.81;100.00;100240.64;86925;274;136676;-73
2024/01/01 02:02:15;;;;;;;36.40;27.20;;;;;;;0.81;100.00;100243.09;87143;278;22755;-66
2024/01/01 02:04:17;;;;;;;35.60;26.20;;;;;;;0.81;100.00;100237.50;87060;269;136700;-70
2024/01/01 02:06:19;;;;;;;37.30;27.20;;;;;;;0.79;100.00;100235.84;87130;281;24052;-72
2024/01/01 02:08:22;;;;;;;35.20;25.30;;;;;;;0.73;100.00;100233.60;87078;274;136249;-73
2024/01/01 02:10:24;;;;;;;39.60;27.80;;;;;;;0.70;100.00;100226.12;87020;276;22651;-75
2024/01/01 02:12:26;;;;;;;35.20;22.60;;;;;;;0.77;100.00;100222.20;86748;275;137349;-71
2024/01/01 02:14:29;;;;;;;32.30;24.20;;;;;;;0.81;100.00;100218.20;87259;269;24126;-73
2024/01/01 02:16:30;;;;;;;31.90;23.80;;;;;;;0.87;100.00;100210.92;86859;282;136952;-73
2024/01/01 02:18:32;;;;;;;25.40;19.60;;;;;;;0.88;100.00;100213.95;87207;273;25109;-73
2024/01/01 02:20:35;;;;;;;30.70;23.50;;;;;;;0.90;100.00;100210.44;87013;267;136614;-71
2024/01/01 02:22:38;;;;;;;29.50;21.90;;;;;;;0.94;100.00;100204.89;86995;270;25294;-71
2024/01/01 02:24:40;;;;;;;33.90;24.00;;;;;;;0.94;100.00;100199.77;86879;275;136387;-71
2024/01/01 02:26:43;;;;;;;27.70;20.60;;;;;;;0.92;100.00;100188.58;87072;274;25233;-71
2024/01/01 02:28:45;;;;;;;27.50;21.20;;;;;;;0.90;100.00;100184.04;87077;273;136259;-74
2024/01/01 02:30:47;;;;;;;29.00;20.90;;;;;;;0.93;100.00;100186.73;87114;269;22572;-71
2024/01/01 02:32:49;;;;;;;29.20;19.60;;;;;;;1.01;100.00;100186.16;87095;277;137051;-71
2024/01/01 02:34:51;;;;;;;30.90;21.20;;;;;;;1.03;100.00;100178.94;87059;275;25233;-71
2024/01/01 02:36:55;;;;;;;24.20;19.90;;;;;;;1.08;100.00;100171.91;87124;278;136756;-72
2024/01/01 02:38:57;;;;;;;29.90;22.00;;;;;;;1.09;100.00;100160.59;87241;270;25256;-74
2024/01/01 02:40:59;;;;;;;26.90;20.40;;;;;;;1.13;100.00;100168.12;86982;266;136688;-65
2024/01/01 02:43:02;;;;;;;27.10;20.10;;;;;;;1.14;100.00;100171.52;87022;282;22575;-73
2024/01/01 02:45:06;;;;;;;21.50;16.10;;;;;;;1.12;100.00;100175.38;87203;273;135961;-74
2024/01/01 02:47:08;;;;;;;27.60;20.20;;;;;;;1.10;100.00;100173.22;87220;270;22590;-74
2024/01/01 02:49:12;;;;;;;23.90;16.60;;;;;;;1.15;100.00;100162.66;87008;278;136707;-71
2024/01/01 02:51:16;;;;;;;23.20;14.60;;;;;;;1.22;100.00;100157.70;87066;283;24181;-73
2024/01/01 02:53:17;;;;;;;16.20;12.20;;;;;;;1.26;100.00;100161.55;86838;275;136968;-69
2024/01/01 02:55:19;;;;;;;20.40;15.40;;;;;;;1.29;100.00;100160.40;87156;274;24011;-73
2024/01/01 02:57:25;;;;;;;21.00;17.50;;;;;;;1.28;100.00;100162.27;86942;275;137419;-72
2024/01/01 02:59:27;;;;;;;22.40;16.60;;;;;;;1.34;100.00;100165.45;87299;277;24013;-70
2024/01/01 03:01:29;;;;;;;17.00;14.40;;;;;;;1.40;100.00;100166.55;87050;269;138230;-73
2024/01/01 03:03:33;;;;;;;22.70;17.50;;;;;;;1.44;100.00;100160.17;87183;274;22648;-73
2024/01/01 03:05:35;;;;;;;23.40;17.10;;;;;;;1.44;100.00;100158.79;86877;280;136180;-73
2024/01/01 03:07:38;;;;;;;24.50;16.10;;;;;;;1.46;100.00;100159.63;87175;278;22807;-71
2024/01/01 03:09:41;;;;;;;19.10;14.10;;;;;;;1.49;100.00;100157.98;87115;281;136107;-73
2024/01/01 03:11:42;;;;;;;20.90;15.80;;;;;;;1.50;100.00;100160.16;86995;279;22567;-75
2024/01/01 03:13:44;;;;;;;19.70;15.60;;;;;;;1.58;100.00;100154.38;87108;273;137020;-75
2024/01/01 03:15:46;;;;;;;23.40;16.20;;;;;;;1.68;100.00;100153.17;87076;273;22559;-71
2024/01/01 03:17:47;;;;;;;29.20;17.00;;;;;;;1.79;100.00;100149.80;86996;282;136717;-70
2024/01/01 03:19:50;;;;;;;21.70;16.20;;;;;;;1.90;100.00;100147.36;87205;274;24417;-70
2024/01/01 03:21:52;;;;;;;24.00;18.80;;;;;;;1.96;100.00;100145.79;88005;277;136339;-70
2024/01/01 03:23:54;;;;;;;23.50;17.40;;;;;;;1.99;100.00;100139.04;89771;277;22428;-72
2024/01/01 03:25:55;;;;;;;22.60;18.40;;;;;;;2.01;100.00;100137.33;89680;271;137714;-72
2024/01/01 03:27:57;;;;;;;23.30;19.40;;;;;;;2.03;100.00;100139.44;89794;277;22372;-72
2024/01/01 03:30:00;;;;;;;27.10;19.00;;;;;;;2.05;100.00;100137.81;89757;268;135646;-70
2024/01/01 03:32:01;;;;;;;29.10;20.50;;;;;;;2.12;100.00;100137.89;89889;276;22399;-71
2024/01/01 03:34:03;;;;;;;29.30;22.40;;;;;;;2.18;100.00;100134.60;89736;278;22881;-70
2024/01/01 03:36:05;;;;;;;28.50;19.30;;;;;;;2.22;100.00;100127.55;89885;268;137675;-69
2024/01/01 03:38:07;;;;;;;29.00;21.20;;;;;;;2.24;100.00;100119.98;90049;269;22355;-72
2024/01/01 03:40:12;;;;;;;23.50;18.50;;;;;;;2.26;100.00;100116.60;89918;267;137312;-71
2024/01/01 03:42:14;;;;;;;21.70;16.80;;;;;;;2.27;100.00;100113.52;90117;269;23349;-68
2024/01/01 03:44:16;;;;;;;24.20;18.70;;;;;;;2.27;100.00;100108.81;90138;269;137111;-69
2024/01/01 03:46:17;;;;;;;24.10;19.10;;;;;;;2.26;100.00;100101.23;90137;265;22368;-69
2024/01/01 03:48:20;;;;;;;23.20;19.00;;;;;;;2.23;100.00;100096.53;90021;265;137383;-70
2024/01/01 03:50:21;;;;;;;22.90;16.90;;;;;;;2.23;100.00;100095.16;90138;265;22392;-71
2024/01/01 03:52:24;;;;;;;22.50;17.10;;;;;;;2.25;100.00;100093.44;90050;273;136520;-70
2024/01/01 03:54:25;;;;;;;24.30;17.90;;;;;;;2.26;100.00;100088.44;89968;271;22660;-70
2024/01/01 03:56:27;;;;;;;23.80;16.90;;;;;;;2.23;100.00;100089.89;90023;265;137758;-70
2024/01/01 03:58:29;;;;;;;24.10;17.10;;;;;;;2.21;100.00;100086.07;90060;265;22458;-68
2024/01/01 04:00:31;;;;;;;25.80;17.40;;;;;;;2.25;100.00;100094.94;90035;269;136084;-69
2024/01/01 04:02:33;;;;;;;26.30;18.00;;;;;;;2.29;100.00;100093.92;89993;274;22455;-70
2024/01/01 04:04:34;;;;;;;19.70;16.30;;;;;;;2.27;100.00;100089.40;90071;269;136626;-68
2024/01/01 04:06:36;;;;;;;21.30;15.70;;;;;;;2.20;100.00;100089.14;90200;264;22621;-69
2024/01/01 04:08:37;;;;;;;22.70;14.70;;;;;;;2.17;100.00;100086.07;89918;266;137105;-70
2024/01/01 04:10:39;;;;;;;19.40;15.10;;;;;;;2.13;100.00;100081.84;90231;270;22391;-70
2024/01/01 04:12:41;;;;;;;27.10;14.90;;;;;;;2.12;100.00;100076.71;90034;265;137777;-70
2024/01/01 04:14:42;;;;;;;23.10;14.50;;;;;;;2.13;100.00;100069.77;90330;260;22407;-70
2024/01/01 04:16:44;;;;;;;36.70;17.40;;;;;;;2.10;100.00;100064.96;90040;272;137860;-70
2024/01/01 04:18:46;;;;;;;32.50;18.20;;;;;;;2.06;100.00;100061.85;90555;262;23077;-69
2024/01/01 04:20:48;;;;;;;24.20;16.70;;;;;;;2.02;100.00;100057.11;90052;269;138365;-69
2024/01/01 04:22:51;;;;;;;24.20;17.10;;;;;;;2.03;100.00;100056.00;90153;262;23022;-70
2024/01/01 04:24:53;;;;;;;28.50;18.40;;;;;;;2.05;100.00;100049.84;90080;268;138543;-70
2024/01/01 04:26:55;;;;;;;30.40;18.90;;;;;;;2.03;100.00;100046.18;90134;265;22981;-67
2024/01/01 04:28:57;;;;;;;35.70;20.50;;;;;;;1.98;100.00;100042.59;89945;273;136036;-70
2024/01/01 04:30:59;;;;;;;23.70;17.70;;;;;;;1.96;100.00;100036.26;90214;273;23003;-70
2024/01/01 04:33:00;;;;;;;34.40;21.20;;;;;;;1.99;100.00;100036.67;89863;272;136528;-71
2024/01/01 04:35:03;;;;;;;37.70;22.90;;;;;;;2.07;100.00;100034.94;90047;271;23772;-73
2024/01/01 04:37:05;;;;;;;30.20;20.30;;;;;;;2.09;100.00;100033.14;90038;262;137866;-70
2024/01/01 04:39:07;;;;;;;33.10;21.30;;;;;;;2.10;100.00;100035.68;90200;269;23089;-72
2024/01/01 04:41:09;;;;;;;36.90;20.50;;;;;;;2.13;100.00;100029.09;90226;269;137627;-71
2024/01/01 04:43:11;;;;;;;26.30;16.80;;;;;;;2.15;100.00;100029.97;90154;273;22376;-73
2024/01/01 04:45:13;;;;;;;26.80;17.40;;;;;;;2.10;100.00;100032.00;89715;268;135539;-73
2024/01/01 04:47:14;;;;;;;22.90;17.40;;;;;;;2.03;100.00;100034.09;90029;267;22479;-69
2024/01/01 04:49:16;;;;;;;19.00;13.50;;;;;;;1.97;100.00;100029.16;89950;274;137701;-73
2024/01/01 04:51:18;;;;;;;22.40;15.00;;;;;;;1.93;100.00;100021.45;89929;275;22372;-70
2024/01/01 04:53:23;;;;;;;25.00;16.00;;;;;;;1.91;100.00;100019.36;90032;265;136943;-71
2024/01/01 04:55:25;;;;;;;19.20;14.60;;;;;;;1.92;100.00;100022.28;89999;265;22467;-68
2024/01/01 04:57:27;;;;;;;20.00;13.90;;;;;;;1.93;100.00;100014.06;90032;265;136520;-68
2024/01/01 04:59:28;;;;;;;18.40;14.40;;;;;;;1.93;100.00;100006.75;90221;265;23297;-73
2024/01/01 05:01:30;;;;;;;21.30;16.30;;;;;;;1.95;100.00;100005.35;90047;264;138660;-71
2024/01/01 05:03:32;;;;;;;19.50;14.10;;;;;;;1.96;100.00;100003.16;90421;268;22470;-73
2024/01/01 05:05:34;;;;;;;18.90;14.10;;;;;;;1.92;100.00;100006.27;90090;265;138835;-72
2024/01/01 05:07:37;;;;;;;20.60;13.40;;;;;;;1.88;100.00;100007.34;90193;273;22369;-68
2024/01/01 05:09:42;;;;;;;15.40;13.10;;;;;;;1.83;100.00;100003.81;90053;272;137427;-69
2024/01/01 05:11:43;;;;;;;;;;;;;;;1.86;100.00;100003.01;90171;265;22611;-70
2024/01/01 05:13:45;;;;;;;15.70;12.40;;;;;;;1.94;100.00;99999.96;89777;268;125102;-70
2024/01/01 05:15:47;;;;;;;18.70;12.30;;;;;;;1.94;100.00;99998.40;90019;274;22369;-69
2024/01/01 05:17:49;;;;;;;16.00;12.40;;;;;;;1.99;100.00;99991.48;90098;263;136236;-69
2024/01/01 05:19:50;;;;;;;17.40;12.10;;;;;;;2.03;100.00;99990.41;89835;271;22532;-71
2024/01/01 05:21:52;;;;;;;16.60;13.90;;;;;;;2.04;100.00;99985.23;90095;264;136775;-71
2024/01/01 05:23:54;;;;;;;16.00;12.10;;;;;;;2.08;100.00;99977.18;90199;264;22464;-70
2024/01/01 05:25:56;;;;;;;22.20;16.50;;;;;;;2.14;100.00;99971.54;88331;266;136101;-73
2024/01/01 05:27:58;;;;;;;16.30;13.20;;;;;;;2.16;100.00;99971.54;87295;271;24701;-72
2024/01/01 05:30:01;;;;;;;22.00;15.60;;;;;;;2.17;100.00;99980.76;87270;273;136097;-72
2024/01/01 05:32:03;;;;;;;21.90;15.00;;;;;;;2.20;100.00;99998.13;87283;268;136737;-70
2024/01/01 05:34:05;;;;;;;19.20;13.80;;;;;;;2.28;100.00;100002.80;87387;270;25079;-70
2024/01/01 05:36:13;;;;;;;20.00;14.40;;;;;;;2.31;100.00;100000.09;87202;270;136881;-72
2024/01/01 05:38:17;;;;;;;21.00;14.60;;;;;;;2.41;100.00;99996.02;87388;273;22571;-72
2024/01/01 05:40:19;;;;;;;22.80;14.40;;;;;;;2.47;100.00;99993.30;87410;273;137178;-72
2024/01/01 05:42:23;;;;;;;19.30;14.20;;;;;;;2.51;100.00;99991.40;87326;273;22568;-71
2024/01/01 05:44:25;;;;;;;22.90;15.50;;;;;;;2.51;100.00;99983.63;87293;268;136560;-73
2024/01/01 05:46:27;;;;;;;21.00;15.80;;;;;;;2.46;100.00;99977.96;87346;273;25193;-73
2024/01/01 05:48:28;;;;;;;26.20;16.00;;;;;;;2.39;100.00;99970.05;87282;265;136197;-71
2024/01/01 05:50:40;;;;;;;23.40;14.20;;;;;;;2.33;100.00;99967.98;87317;262;25082;-73
2024/01/01 05:52:42;;;;;;;21.20;14.40;;;;;;;2.32;100.00;99968.27;87266;277;136860;-74
2024/01/01 05:54:48;;;;;;;19.30;13.10;;;;;;;2.33;100.00;99969.60;87408;270;25079;-72
2024/01/01 05:56:50;;;;;;;15.60;12.30;;;;;;;2.34;100.00;99967.73;87235;278;136609;-69
2024/01/01 05:58:52;;;;;;;16.30;12.20;;;;;;;2.33;100.00;99971.28;87465;273;22644;-69
2024/01/01 06:00:54;;;;;;;16.60;11.20;;;;;;;2.34;100.00;99976.13;87293;272;136766;-73
2024/01/01 06:02:58;;;;;;;17.90;12.10;;;;;;;2.34;100.00;99975.94;87401;272;22725;-72
2024/01/01 06:05:00;;;;;;;11.40;9.10;;;;;;;2.36;100.00;99978.13;87199;273;138151;-69
2024/01/01 06:07:02;;;;;;;15.10;10.10;;;;;;;2.33;100.00;99978.12;87341;267;25079;-73
2024/01/01 06:09:05;;;;;;;15.80;10.40;;;;;;;2.34;100.00;99982.98;87332;277;138497;-69
2024/01/01 06:11:07;;;;;;;15.60;10.70;;;;;;;2.35;100.00;99981.80;87339;273;24131;-73
2024/01/01 06:13:08;;;;;;;17.60;12.30;;;;;;;2.41;100.00;99986.91;87239;273;137156;-70
2024/01/01 06:15:11;;;;;;;18.80;12.10;;;;;;;2.46;100.00;99993.23;87382;273;22697;-74
2024/01/01 06:17:13;;;;;;;14.00;10.50;;;;;;;2.50;100.00;99986.03;87351;265;136858;-73
2024/01/01 06:19:19;;;;;;;18.80;12.20;;;;;;;2.48;100.00;99982.66;87371;273;22568;-72
2024/01/01 06:21:21;;;;;;;14.20;9.80;;;;;;;2.46;100.00;99982.73;87224;268;137703;-72
2024/01/01 06:23:23;;;;;;;14.70;10.30;;;;;;;2.45;100.00;99977.70;87234;278;22596;-70
2024/01/01 06:25:26;;;;;;;11.10;8.60;;;;;;;2.48;100.00;99974.84;87232;272;137035;-71
2024/01/01 06:27:28;;;;;;;21.90;12.30;;;;;;;2.49;100.00;99971.75;87404;273;22558;-70
2024/01/01 06:29:30;;;;;;;15.20;9.60;;;;;;;2.50;100.00;99972.85;87261;273;137255;-72
2024/01/01 06:31:32;;;;;;;17.00;9.20;;;;;;;2.50;100.00;99964.81;87410;276;23880;-71
2024/01/01 06:33:34;;;;;;;12.30;9.10;;;;;;;2.47;100.00;99961.80;87343;276;137877;-71
2024/01/01 06:35:37;;;;;;;13.40;9.40;;;;;;;2.44;100.00;99959.73;87334;273;22573;-70
2024/01/01 06:37:38;;;;;;;12.80;9.40;;;;;;;2.45;100.00;99957.08;87358;269;136897;-69
2024/01/01 06:39:40;;;;;;;12.30;9.10;;;;;;;2.47;100.00;99955.67;87381;269;22558;-70
2024/01/01 06:41:42;;;;;;;15.60;9.60;;;;;;;2.47;100.00;99945.75;87277;269;138203;-73
2024/01/01 06:43:44;;;;;;;17.90;8.90;;;;;;;2.45;100.00;99944.95;87256;275;24010;-71
2024/01/01 06:45:46;;;;;;;11.70;9.40;;;;;;;2.41;100.00;99943.57;87248;272;137025;-70
2024/01/01 06:47:49;;;;;;;14.20;9.70;;;;;;;2.41;100.00;99943.96;87306;273;22573;-71
2024/01/01 06:49:51;;;;;;;11.20;9.10;;;;;;;2.43;100.00;99936.91;87248;276;138119;-67
2024/01/01 06:51:53;;;;;;;13.70;10.00;;;;;;;2.43;100.00;99932.90;87313;279;25223;-71
2024/01/01 06:53:55;;;;;;;17.40;12.30;;;;;;;2.43;100.00;99931.83;87176;278;137434;-71
2024/01/01 06:56:00;;;;;;;17.70;11.20;;;;;;;2.41;100.00;99927.59;87242;279;22560;-71
2024/01/01 06:58:01;;;;;;;16.90;10.40;;;;;;;2.37;100.00;99921.85;87233;269;136694;-73
2024/01/01 07:00:05;;;;;;;14.70;9.70;;;;;;;2.33;100.00;99921.02;87244;273;137456;-69
2024/01/01 07:02:07;;;;;;;13.00;9.60;;;;;;;2.30;100.00;99911.47;87395;269;25123;-70
2024/01/01 07:04:10;;;;;;;12.90;10.00;;;;;;;2.29;100.00;99912.64;87307;277;136967;-74
2024/01/01 07:06:14;;;;;;;16.00;10.30;;;;;;;2.28;100.00;99910.54;87416;273;22565;-70
2024/01/01 07:08:17;;;;;;;17.50;10.60;;;;;;;2.29;100.00;99906.60;87191;270;136873;-67
2024/01/01 07:10:19;;;;;;;13.00;9.40;;;;;;;2.30;100.00;99900.40;87349;270;22561;-73
2024/01/01 07:12:27;;;;;;;14.70;10.30;;;;;;;2.31;100.00;99899.79;87223;270;137184;-71
2024/01/01 07:14:29;;;;;;;18.10;10.50;;;;;;;2.34;100.00;99890.73;87443;264;25295;-73
2024/01/01 07:16:31;;;;;;;18.70;9.90;;;;;;;2.35;100.00;99890.27;87351;266;137899;-74
2024/01/01 07:18:33;;;;;;;15.30;10.00;;;;;;;2.37;100.00;99891.73;87480;272;22561;-71
2024/01/01 07:20:35;;;;;;;13.20;9.60;;;;;;;2.34;100.00;99885.98;87288;273;137348;-73
2024/01/01 07:22:37;;;;;;;9.70;8.20;;;;;;;2.36;100.00;99884.42;87353;264;22557;-71
2024/01/01 07:24:39;;;;;;;13.70;9.20;;;;;;;2.38;100.00;99889.14;87247;272;136663;-70
2024/01/01 07:26:43;;;;;;;10.90;9.50;;;;;;;2.40;100.00;99895.84;87352;270;22561;-71
2024/01/01 07:28:45;;;;;;;15.20;10.30;;;;;;;2.40;100.00;99890.68;87171;268;136749;-72
2024/01/01 07:30:47;;;;;;;14.80;11.10;;;;;;;2.39;100.00;99888.92;87355;269;22871;-68
2024/01/01 07:32:49;;;;;;;14.20;10.00;;;;;;;2.34;100.00;99883.05;87190;269;136449;-73
2024/01/01 07:34:51;;;;;;;13.80;11.00;;;;;;;2.30;100.00;99882.02;87355;273;22650;-71
2024/01/01 07:36:54;;;;;;;15.30;12.00;;;;;;;2.33;100.00;99874.52;87228;264;138572;-70
2024/01/01 07:38:56;;;;;;;12.00;9.80;;;;;;;2.40;100.00;99874.38;87332;269;25210;-70
2024/01/01 07:40:58;;;;;;;13.80;10.20;;;;;;;2.45;100.00;99872.03;87314;264;138200;-72
2024/01/01 07:43:00;;;;;;;17.40;11.40;;;;;;;2.46;100.00;99868.00;87230;276;22555;-74
2024/01/01 07:45:02;;;;;;;18.80;12.60;;;;;;;2.46;100.00;99867.48;87244;273;136757;-72
2024/01/01 07:47:04;;;;;;;17.50;13.30;;;;;;;2.46;100.00;99871.32;87333;273;22580;-69
2024/01/01 07:49:07;;;;;;;17.90;13.80;;;;;;;2.48;100.00;99862.79;87279;269;137143;-72
2024/01/01 07:51:09;;;;;;;14.50;11.90;;;;;;;2.49;100.00;99860.54;87362;268;22564;-73
2024/01/01 07:53:10;;;;;;;19.20;12.10;;;;;;;2.51;100.00;99852.86;87240;273;138336;-71
2024/01/01 07:55:12;;;;;;;14.40;12.60;;;;;;;2.53;100.00;99852.66;87371;273;24123;-75
2024/01/01 07:57:14;;;;;;;20.80;12.60;;;;;;;2.57;100.00;99853.34;87579;270;137065;-71
2024/01/01 07:59:16;;;;;;;14.80;12.00;;;;;;;2.62;100.00;99854.45;87259;262;26268;-73
2024/01/01 08:01:20;;;;;;;16.80;13.00;;;;;;;2.62;100.00;99854.39;87292;270;137743;-69
2024/01/01 08:03:22;;;;;;;17.90;13.40;;;;;;;2.61;100.00;99855.06;87409;268;25239;-71
2024/01/01 08:05:24;;;;;;;16.10;13.70;;;;;;;2.63;100.00;99850.09;87280;271;136515;-71
2024/01/01 08:07:26;;;;;;;23.90;15.90;;;;;;;2.70;100.00;99849.27;87399;268;25332;-71
2024/01/01 08:09:28;;;;;;;18.20;14.40;;;;;;;2.78;100.00;99842.37;87264;273;136867;-73
2024/01/01 08:11:30;;;;;;;22.30;13.20;;;;;;;2.85;100.00;99838.83;87381;268;22559;-69
2024/01/01 08:13:34;;;;;;;15.50;11.30;;;;;;;2.92;100.00;99834.48;87280;268;138283;-67
2024/01/01 08:15:36;;;;;;;18.60;13.30;;;;;;;2.96;100.00;99834.64;87357;268;22568;-72
2024/01/01 08:17:38;;;;;;;18.30;14.50;;;;;;;2.96;100.00;99832.46;87217;277;136558;-69
2024/01/01 08:19:40;;;;;;;19.70;15.80;;;;;;;2.94;100.00;99830.54;87385;270;24032;-72
2024/01/01 08:21:42;;;;;;;19.10;15.10;;;;;;;2.91;100.00;99831.05;87211;277;137459;-69
2024/01/01 08:23:46;;;;;;;17.30;13.80;;;;;;;2.98;100.00;99825.34;87395;265;25281;-73
2024/01/01 08:25:48;;;;;;;19.40;13.90;;;;;;;3.07;100.00;99818.70;87244;270;137925;-72
2024/01/01 08:27:49;;;;;;;17.50;13.90;;;;;;;3.14;100.00;99809.64;87391;277;25406;-75
2024/01/01 08:29:51;;;;;;;14.70;12.00;;;;;;;3.19;100.00;99804.89;87251;269;137125;-71
2024/01/01 08:31:53;;;;;;;19.00;13.10;;;;;;;3.20;100.00;99803.42;87283;277;25079;-73
2024/01/01 08:33:55;;;;;;;18.40;13.10;;;;;;;3.23;100.00;99803.09;87263;273;136769;-71
2024/01/01 08:35:57;;;;;;;16.80;12.30;;;;;;;3.25;100.00;99799.91;87504;273;22559;-73
2024/01/01 08:37:59;;;;;;;18.60;12.70;;;;;;;3.21;100.00;99797.90;87208;270;135820;-73
2024/01/01 08:40:02;;;;;;;15.40;11.80;;;;;;;3.21;100.00;99797.85;87397;267;24039;-71
2024/01/01 08:42:04;;;;;;;17.40;12.40;;;;;;;3.25;100.00;99793.43;87356;269;22553;-74
2024/01/01 08:44:07;;;;;;;16.30;12.20;;;;;;;3.32;100.00;99793.30;87208;273;138408;-70
2024/01/01 08:46:09;;;;;;;12.90;10.90;;;;;;;3.39;100.00;99793.31;87298;273;22580;-70
2024/01/01 08:48:11;;;;;;;14.80;12.30;;;;;;;3.41;100.00;99783.05;87250;269;137180;-72
2024/01/01 08:50:14;;;;;;;16.40;11.80;;;;;;;3.46;100.00;99777.59;87451;268;23004;-72
2024/01/01 08:52:18;;;;;;;18.10;12.60;;;;;;;3.49;100.00;99772.08;87351;272;136570;-71
2024/01/01 08:54:20;;;;;;;16.20;13.20;;;;;;;3.50;100.00;99776.33;87389;265;22565;-72
2024/01/01 08:56:21;;;;;;;18.00;12.80;;;;;;;3.50;100.00;99774.94;87240;268;136905;-70
2024/01/01 08:58:23;;;;;;;17.00;13.50;;;;;;;3.53;100.00;99776.02;87406;268;25197;-70
2024/01/01 09:00:26;;;;;;;13.80;12.30;;;;;;;3.60;100.00;99781.34;87298;273;138251;-71
2024/01/01 09:02:27;;;;;;;19.30;12.60;;;;;;;3.68;100.00;99769.59;87490;273;22560;-70
2024/01/01 09:04:29;;;;;;;17.90;14.10;;;;;;;3.70;100.00;99756.86;87279;273;136791;-72
2024/01/01 09:06:31;;;;;;;22.20;17.10;;;;;;;3.70;100.00;99747.23;87406;269;22573;-64
2024/01/01 09:08:35;;;;;;;27.20;16.80;;;;;;;3.66;100.00;99741.17;87200;278;135852;-74
2024/01/01 09:10:38;;;;;;;22.60;16.30;;;;;;;3.63;100.00;99735.14;87318;269;22565;-70
2024/01/01 09:12:43;;;;;;;22.00;15.10;;;;;;;3.67;100.00;99736.44;87150;267;138056;-72
2024/01/01 09:14:45;;;;;;;18.00;13.90;;;;;;;3.71;100.00;99740.27;87460;265;25168;-71
2024/01/01 09:16:47;;;;;;;22.80;14.20;;;;;;;3.74;100.00;99738.08;87328;273;136986;-73
2024/01/01 09:18:49;;;;;;;16.40;14.00;;;;;;;3.78;100.00;99734.30;87394;270;25234;-72
2024/01/01 09:20:51;;;;;;;17.50;12.70;;;;;;;3.85;100.00;99734.96;87335;269;137065;-74
2024/01/01 09:22:56;;;;;;;17.90;12.40;;;;;;;3.93;100.00;99737.49;87456;266;25186;-70